Carson Valley, Nevada Weather observations

Data are for 10 minute period ending at time listed.
 Day   Time   Solar   Ave.   Ave.  Ave.  Vector  Max.   Baro.   Total    
  of    of     Rad.   Air    Rel.  Wind   Wind   Wind  Press.  Precip.   
Year   Day            Temp.  Hum.  Speed  Dir.   Gust                    
2014   (PST)  Kw/m2    F      %     mph   deg.    mph    mb.     in.     
-------------------------------------------------------------------------
 238    6:50   0.22   45.4   100    2.0   222     3.2   859.9    0.00 
 238    7:00   0.25   46.2   100    1.6   244     2.6   860.0    0.00 
 238    7:10   0.29   47.6   100    1.6   249     2.3   860.1    0.00 
 238    7:20   0.32   48.7    97    2.2   236     3.4   860.1    0.00 
 238    7:30   0.36   50.5    96    1.8   212     3.1   860.0    0.00 
 238    7:40   0.39   51.8    92    0.8   226     2.7   860.0    0.00 
 238    7:50   0.43   53.5    86    1.0   299     2.7   860.1    0.00 
 238    8:00   0.46   54.9    82    1.0   354     2.7   860.1    0.00 
 238    8:10   0.50   56.4    78    1.2   333     2.5   860.2    0.00 
 238    8:20   0.53   58.1    74    1.6   337     3.2   860.3    0.00 
 238    8:30   0.56   59.8    69    1.1    92     2.6   860.4    0.00 
 238    8:40   0.59   62.4    64    1.0    80     2.6   860.5    0.00 
 238    8:50   0.62   62.6    59    1.1   343     2.8   860.6    0.00 
 238    9:00   0.65   62.3    61    2.1   327     3.9   860.7    0.00 
 238    9:10   0.68   63.4    60    0.8   228     2.4   860.8    0.00 
 238    9:20   0.71   63.8    60    1.9   254     3.9   860.8    0.00 
 238    9:30   0.73   64.3    59    2.0   271     4.9   860.7    0.00 
 238    9:40   0.76   66.0    56    2.1   246     4.3   860.7    0.00 
 238    9:50   0.78   66.4    55    2.0   251     3.9   860.7    0.00 
 238   10:00   0.80   67.7    50    1.9   222     3.7   860.6    0.00 
 238   10:10   0.82   68.3    48    2.4   270     6.1   860.6    0.00 
 238   10:20   0.84   68.8    41    2.0   274     4.7   860.6    0.00 
 238   10:30   0.86   71.5    35    0.8   185     2.0   860.5    0.00 
 238   10:40   0.87   71.3    35    3.1   228     6.0   860.4    0.00 
 238   10:50   0.88   71.7    34    3.0   213     5.8   860.3    0.00 
 238   11:00   0.90   72.7    32    1.8   196     4.6   860.3    0.00 
 238   11:10   0.91   73.3    31    3.1   190     6.6   860.2    0.00 
 238   11:20   0.92   73.7    31    2.8   206     6.1   860.2    0.00 
 238   11:30   0.92   73.8    33    2.9   276     6.5   860.1    0.00 
 238   11:40   0.93   73.8    31    2.5   330     6.1   859.9    0.00 
 238   11:50   0.93   74.0    29    2.1   295     4.9   859.8    0.00 
 238   12:00   0.94   75.2    28    2.0   189     7.0   859.7    0.00 
 238   12:10   0.94   74.4    29    4.3   280     7.8   859.7    0.00 
 238   12:20   0.94   74.8    24    1.5   304     5.0   859.7    0.00 
 238   12:30   0.93   75.3    24    3.8   328     8.6   859.6    0.00 
 238   12:40   0.92   75.4    22    3.4   310     7.8   859.6    0.00 
 238   12:50   0.91   76.4    21    1.8   106     5.6   859.5    0.00 
 238   13:00   0.90   77.0    22    1.8    34     3.8   859.3    0.00 
 238   13:10   0.89   77.4    23    2.7   293     6.6   859.1    0.00 
 238   13:20   0.88   76.3    24    6.8   272    12.2   858.9    0.00 
 238   13:30   0.86   76.1    22    4.5   259     9.1   858.9    0.00 
 238   13:40   0.84   76.4    24    5.4   263     8.7   858.8    0.00 
 238   13:50   0.83   77.1    22    3.5   230     6.9   858.7    0.00 
 238   14:00   0.81   78.7    21    3.1   197     5.3   858.6    0.00 
 238   14:10   0.79   78.4    20    3.4   235     9.1   858.5    0.00 
 238   14:20   0.76   78.2    22    3.0   213     5.8   858.4    0.00 
 238   14:30   0.74   78.5    22    3.5     4     9.4   858.2    0.00 
 238   14:40   0.71   78.6    21    3.8   336     9.6   858.2    0.00 
 238   14:50   0.68   78.7    20    4.4    78     8.7   858.1    0.00 
 238   15:00   0.66   78.9    21    4.0    31     9.1   858.0    0.00 
 238   15:10   0.63   78.6    21    2.6   285     5.1   857.9    0.00 
 238   15:20   0.60   78.6    20    4.3   336    10.4   858.0    0.00 
 238   15:30   0.57   79.9    18    2.1    88     5.0   857.9    0.00 
 238   15:40   0.54   80.5    17    1.7   191     4.5   857.8    0.00 
 238   15:50   0.50   78.9    21    5.5   244     9.0   857.8    0.00 
 238   16:00   0.47   78.7    21    2.8   245     5.0   857.9    0.00 
 238   16:10   0.44   78.9    21    3.3   286     7.5   857.9    0.00 
 238   16:20   0.40   79.4    20    2.2   274     4.5   857.8    0.00 
 238   16:30   0.37   78.8    25    3.0   268     6.3   857.8    0.00 
 238   16:40   0.34   77.7    23    5.2   228     9.6   857.8    0.00 
 238   16:50   0.30   78.5    24    2.0   249     4.7   857.8    0.00 
 238   17:00   0.27   79.2    22    2.5   228     3.9   857.8    0.00 
 238   17:10   0.23   78.5    25    2.1   272     4.3   857.8    0.00 
 238   17:20   0.20   77.4    26    3.0   323     5.5   857.8    0.00 
 238   17:30   0.17   73.8    33    5.2   321     7.3   857.9    0.00 
 238   17:40   0.14   71.3    35    5.6   330     7.9   857.9    0.00 
 238   17:50   0.10   69.6    37    5.3   327     6.5   858.0    0.00 
 238   18:00   0.02   66.1    41    4.9   318     6.8   858.1    0.00 
 238   18:10   0.02   62.1    49    3.2   331     4.5   858.2    0.00 
 238   18:20   0.01   63.2    40    4.3   315     5.0   858.3    0.00 
 238   18:30   0.01   63.9    41    4.5   307     5.0   858.4    0.00 
 238   18:40   0.01   62.4    43    4.4   314     5.1   858.4    0.00 
 238   18:50   0.00   59.6    45    4.7   333     6.3   858.5    0.00 
 238   19:00   0.00   59.9    42    6.5   341     8.5   858.5    0.00 
 238   19:10   0.00   63.0    36    7.8   338    12.5   858.6    0.00 
 238   19:20   0.00   64.6    34    6.7   345     9.2   858.8    0.00 
 238   19:30   0.00   63.1    35    6.1     1     7.6   858.9    0.00 
 238   19:40   0.00   63.7    33    5.3     5     7.0   859.0    0.00 
 238   19:50   0.00   62.7    35    5.9   354     7.0   859.1    0.00 
 238   20:00   0.00   62.0    36    5.2    11     7.2   859.3    0.00 
 238   20:10   0.00   58.5    41    4.7    39     5.6   859.4    0.00 
 238   20:20   0.00   56.6    46    3.3    34     4.9   859.4    0.00 
 238   20:30   0.00   58.5    41    2.7    62     4.3   859.5    0.00 
 238   20:40   0.00   55.1    52    4.7   201     7.7   859.6    0.00 
 238   20:50   0.00   54.4    56    4.3   202     7.9   859.7    0.00 
 238   21:00   0.00   54.7    55    4.7   190     6.1   859.7    0.00 
 238   21:10   0.00   53.0    60    4.7   169     5.5   859.8    0.00 
 238   21:20   0.00   51.4    64    5.4   182     6.3   859.9    0.00 
 238   21:30   0.00   53.3    58    4.2   182     5.8   859.8    0.00 
 238   21:40   0.00   55.3    54    3.9   193     4.3   859.8    0.00 
 238   21:50   0.00   54.7    55    1.8   191     3.9   859.8    0.00 
 238   22:00   0.00   51.8    61    3.6    87     5.4   859.9    0.00 
 238   22:10   0.00   48.5    69    2.0   117     3.6   859.8    0.00 
 238   22:20   0.00   48.6    71    2.1   163     3.2   859.8    0.00 
 238   22:30   0.00   48.4    74    1.9   232     2.8   859.9    0.00 
 238   22:40   0.00   47.6    78    0.9   240     2.6   859.9    0.00 
 238   22:50   0.00   47.1    77    0.5    94     1.4   859.9    0.00 
 238   23:00   0.00   47.5    78    0.8   221     2.2   860.0    0.00 
 238   23:10   0.00   48.5    75    2.4   301     3.3   860.0    0.00 
 238   23:20   0.00   47.3    77    2.3   315     2.8   860.0    0.00 
 238   23:30   0.00   45.3    82    0.7   296     1.8   860.1    0.00 
 238   23:40   0.00   46.1    88    0.0    61     0.7   860.2    0.00 
 238   23:50   0.00   46.4    87    0.1   327     1.7   860.2    0.00 
 239    0:00   0.00   46.2    84    1.6   325     2.0   860.2    0.00 
 239    0:10   0.00   45.7    82    1.6    13     2.2   860.3    0.00 
 239    0:20   0.00   47.5    75    1.8    23     2.2   860.3    0.00 
 239    0:30   0.00   48.9    71    1.6   353     2.1   860.3    0.00 
 239    0:40   0.00   49.3    69    0.7    24     1.2   860.4    0.00 
 239    0:50   0.00   48.2    68    0.9   122     1.5   860.4    0.00 
 239    1:00   0.00   47.3    67    0.8   130     1.9   860.4    0.00 
 239    1:10   0.00   45.3    70    1.8   146     2.3   860.5    0.00 
 239    1:20   0.00   44.4    73    2.7   116     4.4   860.5    0.00 
 239    1:30   0.00   42.5    76    2.0   109     4.4   860.5    0.00 
 239    1:40   0.00   42.0    81    0.8   226     1.7   860.6    0.00 
 239    1:50   0.00   43.3    82    1.8   108     3.1   860.7    0.00 
 239    2:00   0.00   43.2    80    1.9   126     3.0   860.8    0.00 
 239    2:10   0.00   43.5    78    3.2   147     4.3   860.8    0.00 
 239    2:20   0.00   42.8    80    2.0   172     3.1   860.8    0.00 
 239    2:30   0.00   42.1    83    1.8   171     3.1   860.9    0.00 
 239    2:40   0.00   42.2    85    1.5   185     2.0   861.0    0.00 
 239    2:50   0.00   41.0    87    3.1   230     4.2   861.0    0.00 
 239    3:00   0.00   40.5    90    2.9   245     3.4   861.0    0.00 
 239    3:10   0.00   42.1    89    2.6   282     3.2   860.9    0.00 
 239    3:20   0.00   42.0    87    1.5   296     2.6   860.9    0.00 
 239    3:30   0.00   41.7    88    1.0   245     1.4   860.9    0.00 
 239    3:40   0.00   42.7    89    0.7   212     1.5   861.0    0.00 
 239    3:50   0.00   42.5    87    1.4   162     2.0   861.0    0.00 
 239    4:00   0.00   40.3    85    2.4   155     4.2   861.1    0.00 
 239    4:10   0.00   39.0    89    2.9   204     4.2   861.2    0.00 
 239    4:20   0.00   39.8    90    2.7   194     4.6   861.3    0.00 
 239    4:30   0.00   39.2    90    0.6   157     2.5   861.3    0.00 
 239    4:40   0.00   39.2    90    2.1   148     3.3   861.4    0.00 
 239    4:50   0.00   40.4    88    2.1   162     3.3   861.5    0.00 
 239    5:00   0.00   40.4    88    2.0   235     3.2   861.6    0.00 
 239    5:10   0.00   39.0    89    1.3    42     2.8   861.8    0.00 
 239    5:20   0.00   37.6    90    3.7    79     4.7   861.8    0.00 
 239    5:30   0.00   38.3    90    2.6    99     4.3   862.1    0.00 
 239    5:40   0.01   38.0    89    1.3   224     3.2   862.1    0.00 
 239    5:50   0.04   38.9    90    2.0   195     3.9   862.2    0.00 
 239    6:00   0.07   39.7    90    1.7   141     2.4   862.2    0.00 
 239    6:10   0.10   41.5    89    1.2   152     2.0   862.3    0.00 
 239    6:20   0.12   43.4    86    1.5   191     2.6   862.4    0.00 
 239    6:30   0.16   43.7    86    2.7   236     3.4   862.3    0.00 
 239    6:40   0.19   45.5    86    2.3   236     3.1   862.3    0.00 

Return to Carson Valley graphs page.


Western Regional Climate Center,wrcc@dri.edu